createdAt,value
2022-12-11T00:01:28.779Z,32.25
2022-12-11T00:04:02.158Z,30.40
2022-12-11T00:06:34.428Z,32.30
2022-12-11T00:09:06.308Z,30.60
2022-12-11T00:11:37.086Z,29.95
2022-12-11T00:14:06.048Z,29.15
2022-12-11T00:16:35.977Z,30.15
2022-12-11T00:19:11.787Z,31.15
2022-12-11T00:21:44.215Z,30.38
2022-12-11T00:24:19.057Z,31.20
2022-12-11T00:26:48.019Z,31.20
2022-12-11T00:29:24.917Z,31.23
2022-12-11T00:31:54.011Z,30.00
2022-12-11T00:34:32.959Z,31.40
2022-12-11T00:37:10.287Z,29.55
2022-12-11T00:39:40.313Z,30.63
2022-12-11T00:42:10.283Z,28.38
2022-12-11T00:44:38.967Z,30.80
2022-12-11T00:47:07.667Z,28.75
2022-12-11T00:49:36.499Z,28.75
2022-12-11T00:52:05.178Z,29.13
2022-12-11T00:54:36.155Z,29.20
2022-12-11T00:57:04.947Z,27.52
2022-12-11T00:59:33.797Z,29.38
2022-12-11T01:02:03.409Z,29.80
2022-12-11T01:04:31.946Z,29.45
2022-12-11T01:07:00.715Z,29.25
2022-12-11T01:09:46.418Z,29.40
2022-12-11T01:12:16.489Z,30.05
2022-12-11T01:14:44.970Z,29.15
2022-12-11T01:17:29.568Z,29.90
2022-12-11T01:19:58.336Z,29.48
2022-12-11T01:22:27.081Z,27.15
2022-12-11T01:25:14.328Z,26.30
2022-12-11T01:27:44.534Z,26.65
2022-12-11T01:30:14.865Z,26.27
2022-12-11T01:32:43.356Z,26.80
2022-12-11T01:35:14.608Z,25.90
2022-12-11T01:37:43.807Z,26.80
2022-12-11T01:40:16.258Z,25.40
2022-12-11T01:42:47.379Z,24.70
2022-12-11T01:45:32.256Z,24.25
2022-12-11T01:51:31.136Z,23.83
2022-12-11T01:54:03.547Z,22.35
2022-12-11T01:56:36.394Z,22.17
2022-12-11T01:59:09.809Z,23.42
2022-12-11T02:01:42.631Z,22.77
2022-12-11T02:04:12.166Z,23.13
2022-12-11T02:06:43.697Z,22.67
2022-12-11T02:09:15.387Z,22.33
2022-12-11T02:11:54.818Z,22.83
2022-12-11T02:14:35.366Z,22.83
2022-12-11T02:17:12.737Z,24.83
2022-12-11T02:19:53.938Z,23.20
2022-12-11T02:22:39.908Z,25.92
2022-12-11T02:25:19.929Z,25.02
2022-12-11T02:27:57.150Z,25.63
2022-12-11T02:30:27.597Z,25.40
2022-12-11T02:32:58.610Z,24.83
2022-12-11T02:35:32.918Z,25.10
2022-12-11T02:38:09.841Z,24.63
2022-12-11T02:40:43.277Z,23.13
2022-12-11T02:43:16.164Z,23.60
2022-12-11T02:45:48.595Z,23.23
2022-12-11T02:48:19.587Z,24.10
2022-12-11T02:50:50.677Z,23.92
2022-12-11T02:53:23.177Z,23.42
2022-12-11T02:55:58.809Z,22.50
2022-12-11T02:58:31.621Z,23.38
2022-12-11T03:01:02.151Z,22.75
2022-12-11T03:03:31.763Z,21.92
2022-12-11T03:06:00.334Z,21.80
2022-12-11T03:08:28.920Z,22.23
2022-12-11T03:10:57.566Z,22.23
2022-12-11T03:13:26.266Z,22.67
2022-12-11T03:16:08.102Z,22.38
2022-12-11T03:18:43.960Z,22.27
2022-12-11T03:21:20.137Z,22.00
2022-12-11T03:23:53.963Z,22.10
2022-12-11T03:26:24.636Z,22.05
2022-12-11T03:28:59.969Z,22.05
2022-12-11T03:31:37.108Z,23.55
2022-12-11T03:34:17.797Z,22.90
2022-12-11T03:36:51.727Z,22.67
2022-12-11T03:39:28.300Z,23.17
2022-12-11T03:41:58.732Z,22.67
2022-12-11T03:44:30.157Z,22.83
2022-12-11T03:47:03.548Z,22.77
2022-12-11T03:49:37.216Z,21.80
2022-12-11T03:52:07.878Z,23.30
2022-12-11T03:54:37.467Z,21.45
2022-12-11T03:57:07.814Z,21.40
2022-12-11T03:59:36.547Z,22.08
2022-12-11T04:02:11.392Z,20.70
2022-12-11T04:04:41.620Z,21.73
2022-12-11T04:07:10.959Z,22.20
2022-12-11T04:09:39.547Z,22.45
2022-12-11T04:12:09.317Z,23.08
2022-12-11T04:14:55.247Z,21.30
2022-12-11T04:17:43.037Z,21.65
2022-12-11T04:20:30.797Z,23.40
2022-12-11T04:23:16.781Z,20.60
2022-12-11T04:25:45.384Z,21.75
2022-12-11T04:28:14.147Z,21.08
2022-12-11T04:30:50.315Z,22.17
2022-12-11T04:33:20.591Z,22.40
2022-12-11T04:35:49.516Z,22.10
2022-12-11T04:38:18.544Z,21.63
2022-12-11T04:40:46.928Z,21.52
2022-12-11T04:43:15.569Z,20.98
2022-12-11T04:45:44.214Z,21.75
2022-12-11T04:48:14.077Z,19.98
2022-12-11T04:50:44.027Z,20.30
2022-12-11T04:53:12.607Z,20.38
2022-12-11T04:55:41.262Z,20.20
2022-12-11T04:58:09.788Z,20.10
2022-12-11T05:00:38.368Z,20.75
2022-12-11T05:03:06.824Z,21.52
2022-12-11T05:05:35.688Z,21.15
2022-12-11T05:08:06.557Z,20.20
2022-12-11T05:10:35.206Z,18.95
2022-12-11T05:13:03.808Z,19.55
2022-12-11T05:15:32.468Z,19.90
2022-12-11T05:18:01.345Z,19.73
2022-12-11T05:20:29.846Z,20.38
2022-12-11T05:22:58.388Z,19.27
2022-12-11T05:25:28.457Z,20.10
2022-12-11T05:27:57.275Z,19.63
2022-12-11T05:30:25.976Z,18.10
2022-12-11T05:32:54.599Z,18.10
2022-12-11T05:35:23.626Z,16.92
2022-12-11T05:37:52.401Z,17.58
2022-12-11T05:40:20.938Z,16.25
2022-12-11T05:42:52.066Z,16.65
2022-12-11T05:45:20.841Z,15.48
2022-12-11T05:47:49.578Z,14.82
2022-12-11T05:50:18.337Z,14.80
2022-12-11T05:52:46.856Z,13.63
2022-12-11T05:55:15.886Z,15.07
2022-12-11T05:57:44.871Z,14.75
2022-12-11T06:00:15.417Z,14.05
2022-12-11T06:02:44.152Z,14.45
2022-12-11T06:05:13.366Z,14.70
2022-12-11T06:07:42.137Z,13.77
2022-12-11T06:10:12.167Z,12.90
2022-12-11T06:12:41.257Z,12.43
2022-12-11T06:15:10.939Z,13.05
2022-12-11T06:17:41.965Z,12.93
2022-12-11T06:20:11.267Z,17.00
2022-12-11T06:22:39.999Z,16.83
2022-12-11T06:25:09.907Z,17.67
2022-12-11T06:27:38.944Z,15.48
2022-12-11T06:30:09.107Z,15.02
2022-12-11T06:32:37.697Z,15.90
2022-12-11T06:35:09.246Z,14.82
2022-12-11T06:37:40.576Z,14.82
2022-12-11T06:40:12.016Z,14.35
2022-12-11T06:42:40.585Z,13.93
2022-12-11T06:45:10.771Z,13.63
2022-12-11T06:47:39.817Z,13.63
2022-12-11T06:50:11.835Z,14.07
2022-12-11T06:52:40.567Z,13.48
2022-12-11T06:55:10.513Z,13.30
2022-12-11T06:57:39.418Z,13.40
2022-12-11T07:00:09.589Z,13.68
2022-12-11T07:02:38.207Z,13.45
2022-12-11T07:05:08.006Z,12.68
2022-12-11T07:07:38.368Z,12.07
2022-12-11T07:10:08.705Z,12.43
2022-12-11T07:12:38.307Z,12.50
2022-12-11T07:15:07.706Z,11.75
2022-12-11T07:17:37.406Z,12.35
2022-12-11T07:20:07.246Z,11.13
2022-12-11T07:22:35.771Z,11.30
2022-12-11T07:25:06.260Z,9.98
2022-12-11T07:27:34.949Z,10.93
2022-12-11T07:30:03.737Z,10.98
2022-12-11T07:32:32.464Z,11.10
2022-12-11T07:35:01.193Z,11.65
2022-12-11T07:37:29.798Z,9.80
2022-12-11T07:39:58.329Z,11.20
2022-12-11T07:42:29.870Z,11.00
2022-12-11T07:44:58.399Z,10.95
2022-12-11T07:47:26.985Z,12.25
2022-12-11T07:49:55.644Z,10.57
2022-12-11T07:52:26.701Z,12.07
2022-12-11T07:55:00.007Z,10.55
2022-12-11T07:57:53.499Z,9.50
2022-12-11T08:00:32.422Z,9.30
2022-12-11T08:03:05.808Z,9.95
2022-12-11T08:05:41.678Z,9.05
2022-12-11T08:08:16.885Z,8.73
2022-12-11T08:10:47.941Z,9.07
2022-12-11T08:13:32.299Z,8.15
2022-12-11T08:19:34.670Z,8.57
2022-12-11T08:22:22.780Z,8.00
2022-12-11T08:25:47.082Z,7.78
2022-12-11T08:29:00.837Z,7.55
2022-12-11T08:31:37.067Z,7.53
2022-12-11T08:34:16.200Z,7.55
2022-12-11T08:36:47.365Z,7.60
2022-12-11T08:39:31.522Z,7.43
2022-12-11T08:42:15.968Z,7.47
2022-12-11T08:45:06.545Z,7.28
2022-12-11T08:47:56.548Z,8.40
2022-12-11T08:50:32.618Z,8.57
2022-12-11T08:53:11.598Z,7.65
2022-12-11T08:55:56.429Z,7.93
2022-12-11T08:58:30.098Z,7.57
2022-12-11T09:01:12.816Z,7.97
2022-12-11T09:04:16.275Z,7.55
2022-12-11T09:10:27.789Z,8.10
2022-12-11T09:12:58.501Z,7.95
2022-12-11T09:15:45.180Z,7.95
2022-12-11T09:18:16.701Z,8.32
2022-12-11T09:20:49.216Z,8.07
2022-12-11T09:23:21.017Z,9.05
2022-12-11T09:26:11.516Z,9.35
2022-12-11T09:28:46.606Z,9.57
2022-12-11T09:31:19.954Z,9.68
2022-12-11T09:33:52.133Z,10.70
2022-12-11T09:36:22.426Z,9.50
2022-12-11T09:38:51.289Z,8.95
2022-12-11T09:41:41.444Z,9.35
2022-12-11T09:44:41.437Z,8.02
2022-12-11T09:47:30.266Z,8.43
2022-12-11T09:50:06.588Z,8.55
2022-12-11T09:52:42.341Z,8.10
2022-12-11T09:55:18.169Z,8.98
2022-12-11T09:57:56.987Z,10.20
2022-12-11T10:00:32.359Z,8.77
2022-12-11T10:03:45.022Z,9.10
2022-12-11T10:06:23.956Z,8.25
2022-12-11T10:09:05.137Z,8.98
2022-12-11T10:11:56.464Z,8.70
2022-12-11T10:14:41.695Z,9.27
2022-12-11T10:17:17.714Z,9.25
2022-12-11T10:19:49.965Z,8.90
2022-12-11T10:22:24.397Z,9.30
2022-12-11T10:25:14.496Z,9.88
2022-12-11T10:27:47.302Z,8.95
2022-12-11T10:30:23.930Z,9.70
2022-12-11T10:32:58.647Z,10.13
2022-12-11T10:35:36.667Z,9.88
2022-12-11T10:38:16.250Z,10.27
2022-12-11T10:40:56.924Z,9.93
2022-12-11T10:43:37.646Z,11.27
2022-12-11T10:46:18.047Z,12.52
2022-12-11T10:48:54.231Z,10.32
2022-12-11T10:51:36.294Z,10.57
2022-12-11T10:54:08.526Z,9.23
2022-12-11T10:56:40.326Z,10.13
2022-12-11T10:59:08.812Z,10.38
2022-12-11T11:01:38.236Z,10.27
2022-12-11T11:04:17.252Z,10.07
2022-12-11T11:06:52.134Z,10.05
2022-12-11T11:09:37.652Z,9.15
2022-12-11T11:12:20.815Z,9.52
2022-12-11T11:15:27.164Z,9.05
2022-12-11T11:18:00.073Z,9.68
2022-12-11T11:20:31.793Z,12.43
2022-12-11T11:23:17.479Z,12.57
2022-12-11T11:25:54.354Z,8.57
2022-12-11T11:28:29.686Z,9.98
2022-12-11T11:31:05.831Z,8.50
2022-12-11T11:33:54.917Z,9.40
2022-12-11T11:36:26.874Z,8.70
2022-12-11T11:39:29.563Z,7.40
2022-12-11T11:42:06.325Z,8.07
2022-12-11T11:44:42.922Z,8.25
2022-12-11T11:47:32.168Z,7.57
2022-12-11T11:50:26.503Z,7.82
2022-12-11T11:53:13.662Z,7.60
2022-12-11T11:55:59.117Z,8.18
2022-12-11T11:58:44.388Z,7.40
2022-12-11T12:02:07.752Z,7.82
2022-12-11T12:05:14.171Z,7.63
2022-12-11T12:08:07.712Z,8.23
2022-12-11T12:10:50.126Z,7.97
2022-12-11T12:13:49.161Z,8.50
2022-12-11T12:16:52.278Z,8.88
2022-12-11T12:19:30.236Z,9.85
2022-12-11T12:22:14.592Z,10.52
2022-12-11T12:24:56.361Z,10.57
2022-12-11T12:27:52.530Z,10.40
2022-12-11T12:30:23.832Z,10.80
2022-12-11T12:33:13.054Z,10.00
2022-12-11T12:35:57.469Z,9.93
2022-12-11T12:38:41.792Z,10.15
2022-12-11T12:41:22.849Z,7.60
2022-12-11T12:44:26.385Z,9.68
2022-12-11T12:47:07.289Z,9.35
2022-12-11T12:49:42.778Z,9.95
2022-12-11T12:52:18.124Z,8.95
2022-12-11T12:55:17.127Z,8.55
2022-12-11T12:57:51.358Z,8.45
2022-12-11T13:00:36.454Z,7.95
2022-12-11T13:03:15.662Z,8.13
2022-12-11T13:06:00.145Z,11.90
2022-12-11T13:08:36.384Z,12.07
2022-12-11T13:11:09.338Z,12.07
2022-12-11T13:13:44.514Z,10.60
2022-12-11T13:16:36.091Z,10.82
2022-12-11T13:19:19.756Z,10.63
2022-12-11T13:21:58.557Z,11.07
2022-12-11T13:24:33.953Z,15.10
2022-12-11T13:27:12.754Z,13.30
2022-12-11T13:29:44.468Z,14.85
2022-12-11T13:32:33.520Z,13.73
2022-12-11T13:35:21.669Z,14.13
2022-12-11T13:38:02.349Z,15.40
2022-12-11T13:40:44.595Z,14.10
2022-12-11T13:43:22.264Z,14.35
2022-12-11T13:45:57.358Z,15.15
2022-12-11T13:48:37.928Z,15.32
2022-12-11T13:51:08.248Z,15.88
2022-12-11T13:53:37.986Z,16.08
2022-12-11T13:56:09.376Z,16.83
2022-12-11T13:58:40.771Z,16.42
2022-12-11T14:01:23.788Z,15.07
2022-12-11T14:03:57.075Z,15.63
2022-12-11T14:06:37.437Z,15.57
2022-12-11T14:09:09.803Z,14.82
2022-12-11T14:11:43.735Z,19.48
2022-12-11T14:14:22.030Z,21.95
2022-12-11T14:16:54.681Z,22.75
2022-12-11T14:19:48.325Z,23.25
2022-12-11T14:22:23.889Z,23.60
2022-12-11T14:24:55.730Z,23.88
2022-12-11T14:27:27.985Z,22.45
2022-12-11T14:29:58.220Z,24.38
2022-12-11T14:32:40.538Z,23.00
2022-12-11T14:35:25.823Z,24.15
2022-12-11T14:38:15.791Z,22.65
2022-12-11T14:41:02.187Z,22.60
2022-12-11T14:43:37.352Z,21.42
2022-12-11T14:46:17.140Z,21.98
2022-12-11T14:49:01.041Z,21.98
2022-12-11T14:51:31.412Z,22.33
2022-12-11T14:54:03.187Z,21.63
2022-12-11T14:56:33.201Z,22.05
2022-12-11T14:59:04.424Z,21.20
2022-12-11T15:01:35.348Z,19.88
2022-12-11T15:04:21.950Z,22.88
2022-12-11T15:06:57.080Z,23.30
2022-12-11T15:09:30.043Z,23.55
2022-12-11T15:12:14.223Z,26.33
2022-12-11T15:14:55.518Z,28.02
2022-12-11T15:17:26.688Z,27.38
2022-12-11T15:20:03.676Z,26.67
2022-12-11T15:22:34.328Z,24.92
2022-12-11T15:25:03.871Z,25.38
2022-12-11T15:27:35.989Z,25.33
2022-12-11T15:30:16.493Z,26.13
2022-12-11T15:32:45.084Z,25.67
2022-12-11T15:35:26.487Z,25.55
2022-12-11T15:37:56.636Z,25.45
2022-12-11T15:40:26.610Z,25.67
2022-12-11T15:42:57.206Z,23.50
2022-12-11T15:45:29.404Z,25.58
2022-12-11T15:47:59.840Z,25.25
2022-12-11T15:50:31.712Z,25.88
2022-12-11T15:53:00.358Z,25.83
2022-12-11T15:55:35.319Z,24.95
2022-12-11T15:58:07.331Z,27.35
2022-12-11T16:00:37.337Z,27.17
2022-12-11T16:03:07.949Z,28.48
2022-12-11T16:05:40.077Z,31.40
2022-12-11T16:08:15.509Z,29.23
2022-12-11T16:10:48.677Z,33.85
2022-12-11T16:13:18.658Z,28.70
2022-12-11T16:15:49.660Z,28.05
2022-12-11T16:18:32.050Z,27.45
2022-12-11T16:21:07.489Z,32.15
2022-12-11T16:23:45.076Z,28.38
2022-12-11T16:26:16.247Z,28.38
2022-12-11T16:29:11.389Z,32.97
2022-12-11T16:31:53.567Z,28.13
2022-12-11T16:34:27.227Z,29.02
2022-12-11T16:37:01.658Z,32.15
2022-12-11T16:39:33.193Z,29.45
2022-12-11T16:42:02.060Z,28.33
2022-12-11T16:48:19.424Z,25.35
2022-12-11T16:50:56.574Z,25.90
2022-12-11T16:53:28.174Z,26.67
2022-12-11T16:56:08.179Z,27.38
2022-12-11T16:58:41.452Z,27.73
2022-12-11T17:01:13.801Z,26.15
2022-12-11T17:03:47.845Z,27.13
2022-12-11T17:06:19.272Z,26.52
2022-12-11T17:09:15.355Z,29.60
2022-12-11T17:11:46.324Z,30.92
2022-12-11T17:14:20.869Z,34.45
2022-12-11T17:17:01.237Z,34.35
2022-12-11T17:20:07.164Z,35.70
2022-12-11T17:22:43.346Z,34.85
2022-12-11T17:25:22.744Z,37.22
2022-12-11T17:27:57.527Z,32.17
2022-12-11T17:30:27.325Z,32.40
2022-12-11T17:33:06.264Z,37.13
2022-12-11T17:35:37.204Z,34.50
2022-12-11T17:38:06.914Z,38.58
2022-12-11T17:40:50.474Z,34.97
2022-12-11T17:43:20.290Z,33.70
2022-12-11T17:45:55.795Z,34.60
2022-12-11T17:48:38.817Z,29.60
2022-12-11T17:51:25.300Z,35.28
2022-12-11T17:53:55.639Z,34.45
2022-12-11T17:56:26.665Z,39.95
2022-12-11T17:58:55.904Z,38.67
2022-12-11T18:01:25.770Z,35.33
2022-12-11T18:03:54.783Z,38.85
2022-12-11T18:06:32.551Z,41.58
2022-12-11T18:09:01.581Z,35.45
2022-12-11T18:11:36.154Z,32.50
2022-12-11T18:14:06.285Z,35.42
2022-12-11T18:16:38.350Z,38.50
2022-12-11T18:19:32.231Z,38.90
2022-12-11T18:22:01.051Z,42.75
2022-12-11T18:27:21.268Z,37.70
2022-12-11T18:29:57.180Z,34.63
2022-12-11T18:32:25.850Z,34.83
2022-12-11T18:35:09.329Z,39.75
2022-12-11T18:37:39.695Z,36.33
2022-12-11T18:40:16.659Z,32.85
2022-12-11T18:42:51.127Z,31.50
2022-12-11T18:45:22.967Z,32.08
2022-12-11T18:47:53.286Z,30.08
2022-12-11T18:50:22.959Z,35.78
2022-12-11T18:52:55.489Z,31.10
2022-12-11T18:55:27.196Z,32.38
2022-12-11T18:58:02.347Z,32.10
2022-12-11T19:00:31.265Z,31.70
2022-12-11T19:03:01.044Z,31.05
2022-12-11T19:05:31.037Z,32.47
2022-12-11T19:08:02.106Z,30.90
2022-12-11T19:10:35.019Z,28.85
2022-12-11T19:13:05.506Z,30.38
2022-12-11T19:15:41.908Z,31.75
2022-12-11T19:18:15.315Z,34.25
2022-12-11T19:20:57.656Z,32.45
2022-12-11T19:23:33.438Z,32.50
2022-12-11T19:26:12.421Z,29.90
2022-12-11T19:29:00.729Z,32.30
2022-12-11T19:31:43.865Z,33.80
2022-12-11T19:34:16.579Z,49.25
2022-12-11T19:36:48.740Z,49.58
2022-12-11T19:39:29.426Z,33.40
2022-12-11T19:42:15.145Z,37.42
2022-12-11T19:44:47.947Z,28.80
2022-12-11T19:47:23.168Z,31.75
2022-12-11T19:50:11.268Z,28.65
2022-12-11T19:52:52.946Z,27.75
2022-12-11T19:55:47.858Z,28.13
2022-12-11T19:58:20.608Z,32.63
2022-12-11T20:00:54.874Z,29.70
2022-12-11T20:03:39.907Z,28.77
2022-12-11T20:06:16.376Z,27.15
2022-12-11T20:08:47.329Z,29.52
2022-12-11T20:11:21.128Z,28.95
2022-12-11T20:13:56.885Z,29.33
2022-12-11T20:17:09.253Z,29.75
2022-12-11T20:19:40.199Z,29.50
2022-12-11T20:22:24.367Z,29.85
2022-12-11T20:24:55.470Z,29.60
2022-12-11T20:27:31.095Z,30.23
2022-12-11T20:30:20.089Z,30.33
2022-12-11T20:32:59.789Z,29.52
2022-12-11T20:35:33.697Z,33.55
2022-12-11T20:38:25.097Z,35.40
2022-12-11T20:40:56.029Z,32.38
2022-12-11T20:43:24.750Z,35.20
2022-12-11T20:46:10.048Z,35.00
2022-12-11T20:48:44.089Z,34.78
2022-12-11T20:51:20.941Z,30.58
2022-12-11T20:53:58.126Z,36.88
2022-12-11T20:56:29.022Z,34.58
2022-12-11T20:58:59.354Z,33.83
2022-12-11T21:01:32.870Z,33.75
2022-12-11T21:04:06.999Z,30.95
2022-12-11T21:06:42.542Z,30.25
2022-12-11T21:09:14.622Z,30.77
2022-12-11T21:11:45.214Z,33.70
2022-12-11T21:14:15.991Z,30.33
2022-12-11T21:16:51.667Z,27.38
2022-12-11T21:19:23.875Z,28.50
2022-12-11T21:21:53.900Z,25.40
2022-12-11T21:24:27.670Z,25.20
2022-12-11T21:26:59.340Z,26.80
2022-12-11T21:29:36.435Z,26.88
2022-12-11T21:32:05.997Z,30.17
2022-12-11T21:34:38.085Z,29.00
2022-12-11T21:37:17.783Z,31.25
2022-12-11T21:39:47.240Z,26.17
2022-12-11T21:42:16.626Z,36.38
2022-12-11T21:47:34.819Z,30.35
2022-12-11T21:50:06.012Z,38.47
2022-12-11T21:52:49.089Z,30.48
2022-12-11T21:55:23.794Z,34.22
2022-12-11T21:57:52.642Z,26.35
2022-12-11T22:00:22.786Z,28.35
2022-12-11T22:02:52.327Z,31.27
2022-12-11T22:05:32.599Z,26.63
2022-12-11T22:08:02.613Z,27.45
2022-12-11T22:10:32.328Z,27.40
2022-12-11T22:13:01.219Z,25.70
2022-12-11T22:15:30.046Z,30.45
2022-12-11T22:17:58.954Z,31.15
2022-12-11T22:20:29.726Z,27.83
2022-12-11T22:23:00.203Z,29.70
2022-12-11T22:25:32.576Z,28.17
2022-12-11T22:28:01.398Z,24.52
2022-12-11T22:30:32.272Z,23.77
2022-12-11T22:33:11.940Z,30.85
2022-12-11T22:35:56.421Z,29.50
2022-12-11T22:38:33.986Z,29.15
2022-12-11T22:41:05.217Z,31.95
2022-12-11T22:43:40.087Z,28.25
2022-12-11T22:46:10.208Z,26.98
2022-12-11T22:48:41.147Z,23.48
2022-12-11T22:51:10.115Z,24.20
2022-12-11T22:53:41.607Z,23.75
2022-12-11T22:56:12.595Z,23.10
2022-12-11T22:58:43.998Z,24.13
2022-12-11T23:01:17.885Z,23.13
2022-12-11T23:03:47.200Z,22.48
2022-12-11T23:06:23.949Z,23.45
2022-12-11T23:09:02.414Z,21.60
2022-12-11T23:11:36.571Z,22.38
2022-12-11T23:14:10.680Z,20.00
2022-12-11T23:16:43.444Z,20.67
2022-12-11T23:19:12.397Z,19.80
2022-12-11T23:21:43.719Z,21.65
2022-12-11T23:24:14.226Z,20.70
2022-12-11T23:26:44.417Z,21.20
2022-12-11T23:29:14.238Z,20.88
2022-12-11T23:31:51.183Z,20.63
2022-12-11T23:34:27.056Z,23.33
2022-12-11T23:37:05.948Z,22.55
2022-12-11T23:39:37.667Z,19.83
2022-12-11T23:42:06.678Z,25.15
2022-12-11T23:44:35.335Z,25.48
2022-12-11T23:47:04.016Z,25.70
2022-12-11T23:49:34.981Z,22.55
2022-12-11T23:52:03.895Z,25.55
2022-12-11T23:54:34.507Z,24.90
2022-12-11T23:57:06.505Z,23.92
2022-12-11T23:59:35.506Z,24.85
